sensor_id;sensor_type;location;lat;lon;timestamp;pressure;altitude;pressure_sealevel;temperature;humidity
14343;BME280;7255;53.596;9.960;2023-01-29T00:01:28;102344.47;;;2.96;nan
14343;BME280;7255;53.596;9.960;2023-01-29T00:03:55;102334.97;;;2.93;nan
14343;BME280;7255;53.596;9.960;2023-01-29T00:06:23;102336.91;;;2.91;nan
14343;BME280;7255;53.596;9.960;2023-01-29T00:08:49;102327.16;;;2.92;nan
14343;BME280;7255;53.596;9.960;2023-01-29T00:11:16;102334.69;;;2.96;nan
14343;BME280;7255;53.596;9.960;2023-01-29T00:13:42;102341.41;;;3.00;nan
14343;BME280;7255;53.596;9.960;2023-01-29T00:16:08;102325.22;;;3.03;nan
14343;BME280;7255;53.596;9.960;2023-01-29T00:18:37;102341.41;;;3.00;nan
14343;BME280;7255;53.596;9.960;2023-01-29T00:21:07;102300.59;;;3.01;nan
14343;BME280;7255;53.596;9.960;2023-01-29T00:23:35;102320.47;;;2.97;nan
14343;BME280;7255;53.596;9.960;2023-01-29T00:26:01;102310.66;;;2.88;nan
14343;BME280;7255;53.596;9.960;2023-01-29T00:28:28;102309.25;;;2.94;nan
14343;BME280;7255;53.596;9.960;2023-01-29T00:30:54;102299.78;;;3.01;nan
14343;BME280;7255;53.596;9.960;2023-01-29T00:33:21;102282.13;;;2.90;nan
14343;BME280;7255;53.596;9.960;2023-01-29T00:35:47;102284.09;;;2.98;nan
14343;BME280;7255;53.596;9.960;2023-01-29T00:38:14;102277.09;;;2.97;nan
14343;BME280;7255;53.596;9.960;2023-01-29T00:40:41;102287.72;;;2.97;nan
14343;BME280;7255;53.596;9.960;2023-01-29T00:43:25;102323.47;;;2.83;nan
14343;BME280;7255;53.596;9.960;2023-01-29T00:46:09;102292.19;;;2.86;nan
14343;BME280;7255;53.596;9.960;2023-01-29T00:48:37;102287.47;;;3.00;nan
14343;BME280;7255;53.596;9.960;2023-01-29T00:51:03;102288.84;;;2.94;nan
14343;BME280;7255;53.596;9.960;2023-01-29T00:53:29;102290.25;;;2.88;nan
14343;BME280;7255;53.596;9.960;2023-01-29T00:55:57;102300.03;;;2.88;nan
14343;BME280;7255;53.596;9.960;2023-01-29T00:58:23;102276.25;;;2.86;nan
14343;BME280;7255;53.596;9.960;2023-01-29T01:00:58;102310.91;;;2.85;nan
14343;BME280;7255;53.596;9.960;2023-01-29T01:03:25;102291.63;;;2.83;nan
14343;BME280;7255;53.596;9.960;2023-01-29T01:06:01;102303.12;;;2.93;nan
14343;BME280;7255;53.596;9.960;2023-01-29T01:08:35;102286.63;;;2.89;nan
14343;BME280;7255;53.596;9.960;2023-01-29T01:11:21;102286.31;;;2.83;nan
14343;BME280;7255;53.596;9.960;2023-01-29T01:13:47;102289.66;;;2.85;nan
14343;BME280;7255;53.596;9.960;2023-01-29T01:16:16;102299.47;;;2.84;nan
14343;BME280;7255;53.596;9.960;2023-01-29T01:18:44;102298.88;;;2.81;nan
14343;BME280;7255;53.596;9.960;2023-01-29T01:21:10;102291.06;;;2.89;nan
14343;BME280;7255;53.596;9.960;2023-01-29T01:23:36;102288.28;;;2.91;nan
14343;BME280;7255;53.596;9.960;2023-01-29T01:26:07;102296.94;;;2.93;nan
14343;BME280;7255;53.596;9.960;2023-01-29T01:28:35;102294.75;;;3.07;nan
14343;BME280;7255;53.596;9.960;2023-01-29T01:31:07;102306.19;;;2.98;nan
14343;BME280;7255;53.596;9.960;2023-01-29T01:33:34;102307.63;;;3.02;nan
14343;BME280;7255;53.596;9.960;2023-01-29T01:36:01;102316.81;;;2.98;nan
14343;BME280;7255;53.596;9.960;2023-01-29T01:38:28;102311.22;;;3.01;nan
14343;BME280;7255;53.596;9.960;2023-01-29T01:40:54;102309.53;;;3.00;nan
14343;BME280;7255;53.596;9.960;2023-01-29T01:43:20;102309.84;;;2.97;nan
14343;BME280;7255;53.596;9.960;2023-01-29T01:45:48;102301.75;;;3.08;nan
14343;BME280;7255;53.596;9.960;2023-01-29T01:48:17;102291.69;;;3.12;nan
14343;BME280;7255;53.596;9.960;2023-01-29T01:50:47;102301.19;;;3.15;nan
14343;BME280;7255;53.596;9.960;2023-01-29T01:53:21;102295.59;;;3.08;nan
14343;BME280;7255;53.596;9.960;2023-01-29T01:55:51;102296.69;;;3.05;nan
14343;BME280;7255;53.596;9.960;2023-01-29T01:58:22;102282.97;;;3.00;nan
14343;BME280;7255;53.596;9.960;2023-01-29T02:00:52;102295.03;;;3.04;nan
14343;BME280;7255;53.596;9.960;2023-01-29T02:03:21;102275.75;;;3.02;nan
14343;BME280;7255;53.596;9.960;2023-01-29T02:06:06;102294.75;;;3.07;nan
14343;BME280;7255;53.596;9.960;2023-01-29T02:08:53;102286.69;;;3.19;nan
14343;BME280;7255;53.596;9.960;2023-01-29T02:11:38;102264.81;;;3.05;nan
14343;BME280;7255;53.596;9.960;2023-01-29T02:14:05;102293.66;;;3.20;nan
14343;BME280;7255;53.596;9.960;2023-01-29T02:16:34;102297.56;;;3.25;nan
14343;BME280;7255;53.596;9.960;2023-01-29T02:19:02;102299.25;;;3.26;nan
14343;BME280;7255;53.596;9.960;2023-01-29T02:21:51;102290.87;;;3.21;nan
14343;BME280;7255;53.596;9.960;2023-01-29T02:24:49;102279.66;;;3.18;nan
14343;BME280;7255;53.596;9.960;2023-01-29T02:27:23;102282.47;;;3.26;nan
14343;BME280;7255;53.596;9.960;2023-01-29T02:30:00;102289.47;;;3.17;nan
14343;BME280;7255;53.596;9.960;2023-01-29T02:32:32;102269.03;;;3.27;nan
14343;BME280;7255;53.596;9.960;2023-01-29T02:35:09;102268.22;;;3.27;nan
14343;BME280;7255;53.596;9.960;2023-01-29T02:37:56;102265.69;;;3.16;nan
14343;BME280;7255;53.596;9.960;2023-01-29T02:40:29;102259.50;;;3.05;nan
14343;BME280;7255;53.596;9.960;2023-01-29T02:43:03;102246.94;;;3.07;nan
14343;BME280;7255;53.596;9.960;2023-01-29T02:45:40;102254.78;;;3.09;nan
14343;BME280;7255;53.596;9.960;2023-01-29T02:48:09;102247.22;;;3.14;nan
14343;BME280;7255;53.596;9.960;2023-01-29T02:50:41;102254.78;;;3.19;nan
14343;BME280;7255;53.596;9.960;2023-01-29T02:53:12;102264.59;;;3.28;nan
14343;BME280;7255;53.596;9.960;2023-01-29T02:55:42;102250.59;;;3.26;nan
14343;BME280;7255;53.596;9.960;2023-01-29T02:58:12;102254.22;;;3.25;nan
14343;BME280;7255;53.596;9.960;2023-01-29T03:00:44;102240.81;;;3.26;nan
14343;BME280;7255;53.596;9.960;2023-01-29T03:03:15;102237.47;;;3.24;nan
14343;BME280;7255;53.596;9.960;2023-01-29T03:05:48;102171.16;;;3.33;nan
14343;BME280;7255;53.596;9.960;2023-01-29T03:08:20;102227.09;;;3.21;nan
14343;BME280;7255;53.596;9.960;2023-01-29T03:10:56;102226.53;;;3.27;nan
14343;BME280;7255;53.596;9.960;2023-01-29T03:13:30;102221.78;;;3.31;nan
14343;BME280;7255;53.596;9.960;2023-01-29T03:16:05;102223.19;;;3.25;nan
14343;BME280;7255;53.596;9.960;2023-01-29T03:18:35;102220.94;;;3.40;nan
14343;BME280;7255;53.596;9.960;2023-01-29T03:21:10;102220.94;;;3.31;nan
14343;BME280;7255;53.596;9.960;2023-01-29T03:23:54;102214.78;;;3.40;nan
14343;BME280;7255;53.596;9.960;2023-01-29T03:26:41;102203.59;;;3.36;nan
14343;BME280;7255;53.596;9.960;2023-01-29T03:29:27;102167.50;;;3.43;nan
14343;BME280;7255;53.596;9.960;2023-01-29T03:32:15;102206.41;;;3.44;nan
14343;BME280;7255;53.596;9.960;2023-01-29T03:34:45;102206.13;;;3.38;nan
14343;BME280;7255;53.596;9.960;2023-01-29T03:37:19;102208.09;;;3.36;nan
14343;BME280;7255;53.596;9.960;2023-01-29T03:39:47;102206.69;;;3.32;nan
14343;BME280;7255;53.596;9.960;2023-01-29T03:42:19;102198.88;;;3.30;nan
14343;BME280;7255;53.596;9.960;2023-01-29T03:44:53;102206.41;;;3.35;nan
14343;BME280;7255;53.596;9.960;2023-01-29T03:47:33;102194.66;;;3.27;nan
14343;BME280;7255;53.596;9.960;2023-01-29T03:50:06;102190.75;;;3.32;nan
14343;BME280;7255;53.596;9.960;2023-01-29T03:52:41;102191.59;;;3.32;nan
14343;BME280;7255;53.596;9.960;2023-01-29T03:55:14;102208.94;;;3.26;nan
14343;BME280;7255;53.596;9.960;2023-01-29T03:57:46;102193.00;;;3.26;nan
14343;BME280;7255;53.596;9.960;2023-01-29T04:00:19;102186.28;;;3.13;nan
14343;BME280;7255;53.596;9.960;2023-01-29T04:02:52;102183.47;;;3.14;nan
14343;BME280;7255;53.596;9.960;2023-01-29T04:05:23;102189.91;;;3.21;nan
14343;BME280;7255;53.596;9.960;2023-01-29T04:07:53;102143.22;;;3.28;nan
14343;BME280;7255;53.596;9.960;2023-01-29T04:10:26;102179.28;;;3.21;nan
14343;BME280;7255;53.596;9.960;2023-01-29T04:12:55;102178.16;;;3.14;nan
14343;BME280;7255;53.596;9.960;2023-01-29T04:15:27;102170.62;;;3.19;nan
14343;BME280;7255;53.596;9.960;2023-01-29T04:17:56;102154.69;;;3.10;nan
14343;BME280;7255;53.596;9.960;2023-01-29T04:20:23;102176.22;;;3.06;nan
14343;BME280;7255;53.596;9.960;2023-01-29T04:22:50;102172.56;;;3.07;nan
14343;BME280;7255;53.596;9.960;2023-01-29T04:25:19;102164.47;;;3.09;nan
14343;BME280;7255;53.596;9.960;2023-01-29T04:27:56;102173.13;;;3.11;nan
14343;BME280;7255;53.596;9.960;2023-01-29T04:30:34;102165.87;;;3.03;nan
14343;BME280;7255;53.596;9.960;2023-01-29T04:33:11;102156.09;;;2.94;nan
14343;BME280;7255;53.596;9.960;2023-01-29T04:35:53;102156.63;;;2.98;nan
14343;BME280;7255;53.596;9.960;2023-01-29T04:38:31;102163.09;;;2.95;nan
14343;BME280;7255;53.596;9.960;2023-01-29T04:41:03;102162.50;;;3.01;nan
14343;BME280;7255;53.596;9.960;2023-01-29T04:43:35;102169.78;;;2.99;nan
14343;BME280;7255;53.596;9.960;2023-01-29T04:46:12;102177.59;;;2.91;nan
14343;BME280;7255;53.596;9.960;2023-01-29T04:48:49;102166.41;;;2.87;nan
14343;BME280;7255;53.596;9.960;2023-01-29T04:51:21;102184.31;;;2.95;nan
14343;BME280;7255;53.596;9.960;2023-01-29T04:53:55;102180.41;;;2.99;nan
14343;BME280;7255;53.596;9.960;2023-01-29T04:56:29;102182.63;;;2.94;nan
14343;BME280;7255;53.596;9.960;2023-01-29T04:59:02;102185.16;;;2.96;nan
14343;BME280;7255;53.596;9.960;2023-01-29T05:01:31;102188.22;;;2.91;nan
14343;BME280;7255;53.596;9.960;2023-01-29T05:04:04;102183.75;;;3.01;nan
14343;BME280;7255;53.596;9.960;2023-01-29T05:06:34;102179.84;;;3.05;nan
14343;BME280;7255;53.596;9.960;2023-01-29T05:09:01;102181.53;;;3.06;nan
14343;BME280;7255;53.596;9.960;2023-01-29T05:11:29;102174.53;;;3.05;nan
14343;BME280;7255;53.596;9.960;2023-01-29T05:13:56;102172.28;;;3.11;nan
14343;BME280;7255;53.596;9.960;2023-01-29T05:16:25;102177.34;;;3.14;nan
14343;BME280;7255;53.596;9.960;2023-01-29T05:18:53;102163.91;;;3.15;nan
14343;BME280;7255;53.596;9.960;2023-01-29T05:21:21;102168.09;;;3.18;nan
14343;BME280;7255;53.596;9.960;2023-01-29T05:24:10;102164.75;;;3.16;nan
14343;BME280;7255;53.596;9.960;2023-01-29T05:26:37;102154.69;;;3.10;nan
14343;BME280;7255;53.596;9.960;2023-01-29T05:29:21;102158.31;;;3.08;nan
14343;BME280;7255;53.596;9.960;2023-01-29T05:31:47;102169.50;;;3.12;nan
14343;BME280;7255;53.596;9.960;2023-01-29T05:34:14;102152.47;;;2.95;nan
14343;BME280;7255;53.596;9.960;2023-01-29T05:36:41;102161.12;;;2.97;nan
14343;BME280;7255;53.596;9.960;2023-01-29T05:39:08;102153.56;;;2.93;nan
14343;BME280;7255;53.596;9.960;2023-01-29T05:41:34;102147.16;;;2.95;nan
14343;BME280;7255;53.596;9.960;2023-01-29T05:44:01;102149.63;;;2.97;nan
14343;BME280;7255;53.596;9.960;2023-01-29T05:46:27;102145.44;;;3.04;nan
14343;BME280;7255;53.596;9.960;2023-01-29T05:48:53;102144.34;;;2.97;nan
14343;BME280;7255;53.596;9.960;2023-01-29T05:51:20;102127.56;;;2.96;nan
14343;BME280;7255;53.596;9.960;2023-01-29T05:53:47;102156.63;;;2.98;nan
14343;BME280;7255;53.596;9.960;2023-01-29T05:56:14;102161.38;;;2.94;nan
14343;BME280;7255;53.596;9.960;2023-01-29T05:58:40;102160.84;;;2.81;nan
14343;BME280;7255;53.596;9.960;2023-01-29T06:01:08;102102.16;;;2.94;nan
14343;BME280;7255;53.596;9.960;2023-01-29T06:03:34;102151.91;;;3.01;nan
14343;BME280;7255;53.596;9.960;2023-01-29T06:06:01;102153.03;;;2.99;nan
14343;BME280;7255;53.596;9.960;2023-01-29T06:08:27;102141.28;;;2.92;nan
14343;BME280;7255;53.596;9.960;2023-01-29T06:10:55;102144.06;;;2.90;nan
14343;BME280;7255;53.596;9.960;2023-01-29T06:13:22;102148.81;;;2.96;nan
14343;BME280;7255;53.596;9.960;2023-01-29T06:15:48;102159.47;;;3.06;nan
14343;BME280;7255;53.596;9.960;2023-01-29T06:18:14;102141.28;;;3.01;nan
14343;BME280;7255;53.596;9.960;2023-01-29T06:20:41;102120.03;;;3.01;nan
14343;BME280;7255;53.596;9.960;2023-01-29T06:23:07;102131.50;;;2.92;nan
14343;BME280;7255;53.596;9.960;2023-01-29T06:25:33;102128.41;;;3.06;nan
14343;BME280;7255;53.596;9.960;2023-01-29T06:28:01;102135.13;;;3.01;nan
14343;BME280;7255;53.596;9.960;2023-01-29T06:30:28;102113.31;;;2.97;nan
14343;BME280;7255;53.596;9.960;2023-01-29T06:32:56;102104.09;;;3.01;nan
14343;BME280;7255;53.596;9.960;2023-01-29T06:35:22;102102.69;;;3.07;nan
14343;BME280;7255;53.596;9.960;2023-01-29T06:37:49;102100.72;;;3.09;nan
14343;BME280;7255;53.596;9.960;2023-01-29T06:40:15;102099.34;;;3.05;nan
14343;BME280;7255;53.596;9.960;2023-01-29T06:42:42;102084.22;;;3.05;nan
14343;BME280;7255;53.596;9.960;2023-01-29T06:45:10;102069.72;;;2.90;nan
14343;BME280;7255;53.596;9.960;2023-01-29T06:47:36;102066.91;;;2.82;nan
14343;BME280;7255;53.596;9.960;2023-01-29T06:50:03;102083.16;;;2.79;nan
14343;BME280;7255;53.596;9.960;2023-01-29T06:52:29;102089.00;;;2.92;nan
14343;BME280;7255;53.596;9.960;2023-01-29T06:54:56;102078.38;;;2.92;nan
14343;BME280;7255;53.596;9.960;2023-01-29T06:57:22;102082.28;;;2.98;nan
14343;BME280;7255;53.596;9.960;2023-01-29T06:59:49;102072.78;;;2.85;nan
14343;BME280;7255;53.596;9.960;2023-01-29T07:02:16;102085.94;;;2.87;nan
14343;BME280;7255;53.596;9.960;2023-01-29T07:04:43;102087.63;;;2.88;nan
14343;BME280;7255;53.596;9.960;2023-01-29T07:07:09;102071.38;;;2.91;nan
14343;BME280;7255;53.596;9.960;2023-01-29T07:09:37;102069.72;;;2.90;nan
14343;BME280;7255;53.596;9.960;2023-01-29T07:12:04;102083.69;;;2.92;nan
14343;BME280;7255;53.596;9.960;2023-01-29T07:14:31;102079.22;;;3.02;nan
14343;BME280;7255;53.596;9.960;2023-01-29T07:16:57;102091.78;;;3.00;nan
14343;BME280;7255;53.596;9.960;2023-01-29T07:19:25;102104.66;;;2.95;nan
14343;BME280;7255;53.596;9.960;2023-01-29T07:21:51;102093.75;;;2.98;nan
14343;BME280;7255;53.596;9.960;2023-01-29T07:24:17;102089.28;;;2.99;nan
14343;BME280;7255;53.596;9.960;2023-01-29T07:26:44;102093.47;;;3.01;nan
14343;BME280;7255;53.596;9.960;2023-01-29T07:29:10;102075.56;;;3.03;nan
14343;BME280;7255;53.596;9.960;2023-01-29T07:31:36;102096.00;;;2.93;nan
14343;BME280;7255;53.596;9.960;2023-01-29T07:34:03;102094.87;;;2.86;nan
14343;BME280;7255;53.596;9.960;2023-01-29T07:36:30;102074.75;;;2.83;nan
14343;BME280;7255;53.596;9.960;2023-01-29T07:38:57;102065.25;;;2.81;nan
14343;BME280;7255;53.596;9.960;2023-01-29T07:41:23;102064.41;;;2.70;nan
14343;BME280;7255;53.596;9.960;2023-01-29T07:43:49;102057.72;;;2.66;nan
14343;BME280;7255;53.596;9.960;2023-01-29T07:46:15;102051.56;;;2.56;nan
14343;BME280;7255;53.596;9.960;2023-01-29T07:48:42;102046.81;;;2.50;nan
14343;BME280;7255;53.596;9.960;2023-01-29T07:51:08;102035.06;;;2.53;nan
14343;BME280;7255;53.596;9.960;2023-01-29T07:53:36;102036.50;;;2.57;nan
14343;BME280;7255;53.596;9.960;2023-01-29T07:56:02;102050.16;;;2.52;nan
14343;BME280;7255;53.596;9.960;2023-01-29T07:58:29;102041.25;;;2.53;nan
14343;BME280;7255;53.596;9.960;2023-01-29T08:00:55;102037.59;;;2.54;nan
14343;BME280;7255;53.596;9.960;2023-01-29T08:03:22;102042.34;;;2.50;nan
14343;BME280;7255;53.596;9.960;2023-01-29T08:05:48;102043.75;;;2.45;nan
14343;BME280;7255;53.596;9.960;2023-01-29T08:08:14;102048.50;;;2.51;nan
14343;BME280;7255;53.596;9.960;2023-01-29T08:10:42;102028.94;;;2.52;nan
14343;BME280;7255;53.596;9.960;2023-01-29T08:13:09;102029.50;;;2.65;nan
14343;BME280;7255;53.596;9.960;2023-01-29T08:15:35;102027.56;;;2.67;nan
14343;BME280;7255;53.596;9.960;2023-01-29T08:18:02;102031.75;;;2.70;nan
14343;BME280;7255;53.596;9.960;2023-01-29T08:20:28;102027.81;;;2.74;nan
14343;BME280;7255;53.596;9.960;2023-01-29T08:22:58;102043.19;;;2.70;nan
14343;BME280;7255;53.596;9.960;2023-01-29T08:25:25;102040.94;;;2.85;nan
14343;BME280;7255;53.596;9.960;2023-01-29T08:27:53;102044.59;;;2.84;nan
14343;BME280;7255;53.596;9.960;2023-01-29T08:30:19;102040.09;;;2.85;nan
14343;BME280;7255;53.596;9.960;2023-01-29T08:32:45;102054.91;;;2.97;nan
14343;BME280;7255;53.596;9.960;2023-01-29T08:35:12;102039.53;;;2.91;nan
14343;BME280;7255;53.596;9.960;2023-01-29T08:37:38;102031.69;;;2.99;nan
14343;BME280;7255;53.596;9.960;2023-01-29T08:40:05;102025.56;;;2.89;nan
14343;BME280;7255;53.596;9.960;2023-01-29T08:42:33;102025.00;;;2.85;nan
14343;BME280;7255;53.596;9.960;2023-01-29T08:45:01;102038.41;;;2.84;nan
14343;BME280;7255;53.596;9.960;2023-01-29T08:47:27;102045.94;;;2.98;nan
14343;BME280;7255;53.596;9.960;2023-01-29T08:49:53;102042.28;;;3.09;nan
14343;BME280;7255;53.596;9.960;2023-01-29T08:52:19;102046.75;;;3.18;nan
14343;BME280;7255;53.596;9.960;2023-01-29T08:54:46;102036.44;;;3.15;nan
14343;BME280;7255;53.596;9.960;2023-01-29T08:57:12;102039.78;;;3.17;nan
14343;BME280;7255;53.596;9.960;2023-01-29T08:59:38;102048.97;;;3.23;nan
14343;BME280;7255;53.596;9.960;2023-01-29T09:02:07;102043.34;;;3.26;nan
14343;BME280;7255;53.596;9.960;2023-01-29T09:04:34;102048.13;;;3.32;nan
14343;BME280;7255;53.596;9.960;2023-01-29T09:07:00;102050.09;;;3.20;nan
14343;BME280;7255;53.596;9.960;2023-01-29T09:09:27;102055.94;;;3.34;nan
14343;BME280;7255;53.596;9.960;2023-01-29T09:11:53;102048.91;;;3.42;nan
14343;BME280;7255;53.596;9.960;2023-01-29T09:14:19;102051.19;;;3.37;nan
14343;BME280;7255;53.596;9.960;2023-01-29T09:16:46;102053.66;;;3.39;nan
14343;BME280;7255;53.596;9.960;2023-01-29T09:19:13;102054.75;;;3.46;nan
14343;BME280;7255;53.596;9.960;2023-01-29T09:21:39;102050.31;;;3.46;nan
14343;BME280;7255;53.596;9.960;2023-01-29T09:24:06;102042.19;;;3.48;nan
14343;BME280;7255;53.596;9.960;2023-01-29T09:26:32;102046.38;;;3.51;nan
14343;BME280;7255;53.596;9.960;2023-01-29T09:28:58;102051.69;;;3.51;nan
14343;BME280;7255;53.596;9.960;2023-01-29T09:31:25;102054.69;;;3.65;nan
14343;BME280;7255;53.596;9.960;2023-01-29T09:33:51;102032.06;;;3.61;nan
14343;BME280;7255;53.596;9.960;2023-01-29T09:36:19;102025.66;;;3.54;nan
14343;BME280;7255;53.596;9.960;2023-01-29T09:38:45;102026.75;;;3.52;nan
14343;BME280;7255;53.596;9.960;2023-01-29T09:41:21;102022.87;;;3.46;nan
14343;BME280;7255;53.596;9.960;2023-01-29T09:43:55;102017.31;;;3.39;nan
14343;BME280;7255;53.596;9.960;2023-01-29T09:46:29;102010.25;;;3.58;nan
14343;BME280;7255;53.596;9.960;2023-01-29T09:49:00;102009.16;;;3.51;nan
14343;BME280;7255;53.596;9.960;2023-01-29T09:51:34;102020.34;;;3.54;nan
14343;BME280;7255;53.596;9.960;2023-01-29T09:54:12;102019.50;;;3.54;nan
14343;BME280;7255;53.596;9.960;2023-01-29T09:56:41;102004.94;;;3.58;nan
14343;BME280;7255;53.596;9.960;2023-01-29T09:59:11;102011.34;;;3.65;nan
14343;BME280;7255;53.596;9.960;2023-01-29T10:01:44;101968.81;;;3.65;nan
14343;BME280;7255;53.596;9.960;2023-01-29T10:04:25;101989.72;;;3.78;nan
14343;BME280;7255;53.596;9.960;2023-01-29T10:07:09;101989.47;;;3.71;nan
14343;BME280;7255;53.596;9.960;2023-01-29T10:09:51;101972.63;;;3.80;nan
14343;BME280;7255;53.596;9.960;2023-01-29T10:12:35;101972.34;;;3.83;nan
14343;BME280;7255;53.596;9.960;2023-01-29T10:15:16;101989.37;;;3.91;nan
14343;BME280;7255;53.596;9.960;2023-01-29T10:17:53;101978.03;;;4.07;nan
14343;BME280;7255;53.596;9.960;2023-01-29T10:20:48;101965.03;;;3.85;nan
14343;BME280;7255;53.596;9.960;2023-01-29T10:23:26;101954.69;;;3.82;nan
14343;BME280;7255;53.596;9.960;2023-01-29T10:25:54;101962.25;;;3.87;nan
14343;BME280;7255;53.596;9.960;2023-01-29T10:28:24;101951.06;;;3.83;nan
14343;BME280;7255;53.596;9.960;2023-01-29T10:30:56;101943.59;;;3.69;nan
14343;BME280;7255;53.596;9.960;2023-01-29T10:33:26;101946.66;;;3.74;nan
14343;BME280;7255;53.596;9.960;2023-01-29T10:35:58;101946.03;;;3.80;nan
14343;BME280;7255;53.596;9.960;2023-01-29T10:38:36;101941.25;;;3.84;nan
14343;BME280;7255;53.596;9.960;2023-01-29T10:41:18;101935.75;;;3.67;nan
14343;BME280;7255;53.596;9.960;2023-01-29T10:43:57;101894.91;;;3.69;nan
14343;BME280;7255;53.596;9.960;2023-01-29T10:46:37;101930.16;;;3.71;nan
14343;BME280;7255;53.596;9.960;2023-01-29T10:49:16;101930.41;;;3.77;nan
14343;BME280;7255;53.596;9.960;2023-01-29T10:52:00;101872.50;;;3.71;nan
14343;BME280;7255;53.596;9.960;2023-01-29T10:54:50;101922.88;;;3.73;nan
14343;BME280;7255;53.596;9.960;2023-01-29T10:57:33;101928.09;;;3.82;nan
14343;BME280;7255;53.596;9.960;2023-01-29T11:00:08;101875.47;;;3.86;nan
14343;BME280;7255;53.596;9.960;2023-01-29T11:02:42;101895.13;;;3.75;nan
14343;BME280;7255;53.596;9.960;2023-01-29T11:05:17;101906.38;;;3.69;nan
14343;BME280;7255;53.596;9.960;2023-01-29T11:07:45;101887.37;;;3.64;nan
14343;BME280;7255;53.596;9.960;2023-01-29T11:10:16;101892.22;;;3.51;nan
14343;BME280;7255;53.596;9.960;2023-01-29T11:12:45;101891.94;;;3.54;nan
14343;BME280;7255;53.596;9.960;2023-01-29T11:15:15;101900.81;;;3.62;nan
14343;BME280;7255;53.596;9.960;2023-01-29T11:18:05;101891.25;;;3.70;nan
14343;BME280;7255;53.596;9.960;2023-01-29T11:20:34;101892.84;;;3.80;nan
14343;BME280;7255;53.596;9.960;2023-01-29T11:23:01;101893.78;;;3.71;nan
14343;BME280;7255;53.596;9.960;2023-01-29T11:25:29;101895.06;;;3.85;nan
14343;BME280;7255;53.596;9.960;2023-01-29T11:27:58;101890.59;;;3.85;nan
14343;BME280;7255;53.596;9.960;2023-01-29T11:30:27;101890.87;;;3.82;nan
14343;BME280;7255;53.596;9.960;2023-01-29T11:33:05;101879.72;;;3.79;nan
14343;BME280;7255;53.596;9.960;2023-01-29T11:35:33;101878.81;;;3.88;nan
14343;BME280;7255;53.596;9.960;2023-01-29T11:38:06;101868.16;;;3.88;nan
14343;BME280;7255;53.596;9.960;2023-01-29T11:40:39;101870.37;;;3.93;nan
14343;BME280;7255;53.596;9.960;2023-01-29T11:43:21;101860.50;;;4.03;nan
14343;BME280;7255;53.596;9.960;2023-01-29T11:45:49;101846.06;;;3.88;nan
14343;BME280;7255;53.596;9.960;2023-01-29T11:48:17;101858.38;;;3.89;nan
14343;BME280;7255;53.596;9.960;2023-01-29T11:50:50;101847.94;;;3.95;nan
14343;BME280;7255;53.596;9.960;2023-01-29T11:53:23;101847.66;;;3.98;nan
14343;BME280;7255;53.596;9.960;2023-01-29T11:55:53;101838.69;;;3.99;nan
14343;BME280;7255;53.596;9.960;2023-01-29T11:58:25;101854.25;;;4.12;nan
14343;BME280;7255;53.596;9.960;2023-01-29T12:00:52;101884.31;;;4.31;nan
14343;BME280;7255;53.596;9.960;2023-01-29T12:03:21;101848.41;;;4.35;nan
14343;BME280;7255;53.596;9.960;2023-01-29T12:05:54;101885.16;;;4.31;nan
14343;BME280;7255;53.596;9.960;2023-01-29T12:08:22;101837.25;;;4.31;nan
14343;BME280;7255;53.596;9.960;2023-01-29T12:10:49;101839.12;;;4.39;nan
14343;BME280;7255;53.596;9.960;2023-01-29T12:13:24;101834.75;;;4.30;nan
14343;BME280;7255;53.596;9.960;2023-01-29T12:16:10;101823.47;;;4.36;nan
14343;BME280;7255;53.596;9.960;2023-01-29T12:18:40;101823.16;;;4.39;nan
14343;BME280;7255;53.596;9.960;2023-01-29T12:21:11;101811.81;;;4.29;nan
14343;BME280;7255;53.596;9.960;2023-01-29T12:23:43;101805.44;;;4.21;nan
14343;BME280;7255;53.596;9.960;2023-01-29T12:26:14;101791.34;;;4.29;nan
14343;BME280;7255;53.596;9.960;2023-01-29T12:28:51;101812.00;;;4.35;nan
14343;BME280;7255;53.596;9.960;2023-01-29T12:31:27;101799.56;;;4.44;nan
14343;BME280;7255;53.596;9.960;2023-01-29T12:34:01;101796.56;;;4.39;nan
14343;BME280;7255;53.596;9.960;2023-01-29T12:36:33;101777.03;;;4.30;nan
14343;BME280;7255;53.596;9.960;2023-01-29T12:39:01;101776.84;;;4.23;nan
14343;BME280;7255;53.596;9.960;2023-01-29T12:41:31;101787.59;;;4.40;nan
14343;BME280;7255;53.596;9.960;2023-01-29T12:44:05;101773.59;;;4.38;nan
14343;BME280;7255;53.596;9.960;2023-01-29T12:46:37;101774.56;;;4.29;nan
14343;BME280;7255;53.596;9.960;2023-01-29T12:49:10;101780.47;;;4.22;nan
14343;BME280;7255;53.596;9.960;2023-01-29T12:51:45;101763.56;;;4.32;nan
14343;BME280;7255;53.596;9.960;2023-01-29T12:54:18;101754.28;;;4.36;nan
14343;BME280;7255;53.596;9.960;2023-01-29T12:56:49;101747.69;;;4.48;nan
14343;BME280;7255;53.596;9.960;2023-01-29T12:59:23;101746.41;;;4.60;nan
14343;BME280;7255;53.596;9.960;2023-01-29T13:01:54;101748.28;;;4.68;nan
14343;BME280;7255;53.596;9.960;2023-01-29T13:04:29;101749.31;;;4.75;nan
14343;BME280;7255;53.596;9.960;2023-01-29T13:07:04;101746.94;;;4.64;nan
14343;BME280;7255;53.596;9.960;2023-01-29T13:09:36;101739.31;;;4.69;nan
14343;BME280;7255;53.596;9.960;2023-01-29T13:12:08;101746.94;;;4.64;nan
14343;BME280;7255;53.596;9.960;2023-01-29T13:14:43;101705.75;;;4.42;nan
14343;BME280;7255;53.596;9.960;2023-01-29T13:17:14;101712.03;;;4.33;nan
14343;BME280;7255;53.596;9.960;2023-01-29T13:19:44;101718.31;;;4.23;nan
14343;BME280;7255;53.596;9.960;2023-01-29T13:22:19;101694.31;;;4.15;nan
14343;BME280;7255;53.596;9.960;2023-01-29T13:24:46;101706.31;;;4.19;nan
14343;BME280;7255;53.596;9.960;2023-01-29T13:27:20;101706.62;;;4.16;nan
14343;BME280;7255;53.596;9.960;2023-01-29T13:29:49;101708.72;;;4.31;nan
14343;BME280;7255;53.596;9.960;2023-01-29T13:32:19;101705.03;;;4.32;nan
14343;BME280;7255;53.596;9.960;2023-01-29T13:34:47;101703.38;;;4.31;nan
14343;BME280;7255;53.596;9.960;2023-01-29T13:37:19;101704.72;;;4.35;nan
14343;BME280;7255;53.596;9.960;2023-01-29T13:39:49;101699.62;;;4.41;nan
14343;BME280;7255;53.596;9.960;2023-01-29T13:42:20;101693.12;;;4.44;nan
14343;BME280;7255;53.596;9.960;2023-01-29T13:44:49;101692.41;;;4.34;nan
14343;BME280;7255;53.596;9.960;2023-01-29T13:47:21;101685.44;;;4.33;nan
14343;BME280;7255;53.596;9.960;2023-01-29T13:49:54;101679.78;;;4.36;nan
14343;BME280;7255;53.596;9.960;2023-01-29T13:52:31;101682.09;;;4.31;nan